createdAt,value
2022-09-06T00:01:58.700Z,13.30
2022-09-06T00:05:05.815Z,13.28
2022-09-06T00:08:14.871Z,13.17
2022-09-06T00:11:21.323Z,13.18
2022-09-06T00:14:27.555Z,13.14
2022-09-06T00:17:34.799Z,13.03
2022-09-06T00:24:07.679Z,12.86
2022-09-06T00:27:13.796Z,12.37
2022-09-06T00:30:19.984Z,12.16
2022-09-06T00:33:26.472Z,12.22
2022-09-06T00:36:32.972Z,11.59
2022-09-06T00:39:40.434Z,11.77
2022-09-06T00:42:46.747Z,11.60
2022-09-06T00:45:53.929Z,11.78
2022-09-06T00:49:12.317Z,12.08
2022-09-06T00:52:20.533Z,11.81
2022-09-06T00:55:28.768Z,11.65
2022-09-06T00:58:36.452Z,11.99
2022-09-06T01:01:42.790Z,12.12
2022-09-06T01:04:51.352Z,11.71
2022-09-06T01:08:09.947Z,12.12
2022-09-06T01:11:32.440Z,12.09
2022-09-06T01:14:53.115Z,11.87
2022-09-06T01:18:09.914Z,11.98
2022-09-06T01:21:24.204Z,11.53
2022-09-06T01:25:01.047Z,11.97
2022-09-06T01:28:29.267Z,12.08
2022-09-06T01:31:42.817Z,12.30
2022-09-06T01:34:55.478Z,12.40
2022-09-06T01:38:02.722Z,12.41
2022-09-06T01:41:09.186Z,12.37
2022-09-06T01:44:17.123Z,12.38
2022-09-06T01:47:41.009Z,12.22
2022-09-06T01:51:09.234Z,11.82
2022-09-06T01:54:27.662Z,11.98
2022-09-06T01:57:49.579Z,11.98
2022-09-06T02:01:13.536Z,11.41
2022-09-06T02:04:24.306Z,10.96
2022-09-06T02:07:33.744Z,10.84
2022-09-06T02:10:46.572Z,10.73
2022-09-06T02:13:56.850Z,10.95
2022-09-06T02:17:05.939Z,10.93
2022-09-06T02:20:17.647Z,10.80
2022-09-06T02:23:28.894Z,10.90
2022-09-06T02:26:41.195Z,10.46
2022-09-06T02:29:47.537Z,10.70
2022-09-06T02:33:04.015Z,11.01
2022-09-06T02:36:11.159Z,10.54
2022-09-06T02:39:17.956Z,10.30
2022-09-06T02:42:25.474Z,10.70
2022-09-06T02:45:31.907Z,10.62
2022-09-06T02:48:39.564Z,10.30
2022-09-06T02:51:46.104Z,10.42
2022-09-06T02:54:52.475Z,10.35
2022-09-06T02:57:58.959Z,10.93
2022-09-06T03:01:05.740Z,11.29
2022-09-06T03:04:13.472Z,10.51
2022-09-06T03:07:19.870Z,10.94
2022-09-06T03:10:26.422Z,10.78
2022-09-06T03:13:32.615Z,11.21
2022-09-06T03:16:39.362Z,11.38
2022-09-06T03:19:47.651Z,11.31
2022-09-06T03:22:53.923Z,10.99
2022-09-06T03:26:00.108Z,11.37
2022-09-06T03:29:06.170Z,11.52
2022-09-06T03:32:12.622Z,11.61
2022-09-06T03:35:20.444Z,11.37
2022-09-06T03:38:28.575Z,11.30
2022-09-06T03:41:34.867Z,11.11
2022-09-06T03:44:41.165Z,11.03
2022-09-06T03:47:47.371Z,10.94
2022-09-06T03:50:56.930Z,10.88
2022-09-06T03:54:03.376Z,10.38
2022-09-06T03:57:09.808Z,10.74
2022-09-06T04:00:17.434Z,11.00
2022-09-06T04:03:24.019Z,10.61
2022-09-06T04:06:31.670Z,10.48
2022-09-06T04:09:38.002Z,9.75
2022-09-06T04:12:45.090Z,9.68
2022-09-06T04:15:52.611Z,9.94
2022-09-06T04:19:00.899Z,10.24
2022-09-06T04:22:08.907Z,9.93
2022-09-06T04:25:15.511Z,9.88
2022-09-06T04:28:22.477Z,10.56
2022-09-06T04:31:28.582Z,10.62
2022-09-06T04:34:35.054Z,10.81
2022-09-06T04:37:42.481Z,11.12
2022-09-06T04:40:48.603Z,11.25
2022-09-06T04:43:54.510Z,11.07
2022-09-06T04:47:10.011Z,11.50
2022-09-06T04:50:16.350Z,11.33
2022-09-06T04:53:23.962Z,11.74
2022-09-06T04:56:30.292Z,11.94
2022-09-06T04:59:37.023Z,12.35
2022-09-06T05:02:45.255Z,12.31
2022-09-06T05:05:51.894Z,12.98
2022-09-06T05:08:59.656Z,12.98
2022-09-06T05:12:06.652Z,12.87
2022-09-06T05:15:13.284Z,12.86
2022-09-06T05:18:19.459Z,12.71
2022-09-06T05:21:25.490Z,13.13
2022-09-06T05:24:33.094Z,13.85
2022-09-06T05:27:39.111Z,13.61
2022-09-06T05:30:45.762Z,13.77
2022-09-06T05:33:53.217Z,13.34
2022-09-06T05:36:58.983Z,13.38
2022-09-06T05:40:07.474Z,14.09
2022-09-06T05:43:13.620Z,13.69
2022-09-06T05:46:19.940Z,13.83
2022-09-06T05:49:26.036Z,13.69
2022-09-06T05:52:33.173Z,13.62
2022-09-06T05:55:43.052Z,13.82
2022-09-06T05:58:49.854Z,13.69
2022-09-06T06:01:56.474Z,13.74
2022-09-06T06:05:02.817Z,14.55
2022-09-06T06:08:09.086Z,14.78
2022-09-06T06:11:16.862Z,14.73
2022-09-06T06:14:23.298Z,14.82
2022-09-06T06:17:29.478Z,14.80
2022-09-06T06:20:35.850Z,14.81
2022-09-06T06:23:42.975Z,15.59
2022-09-06T06:26:50.566Z,15.89
2022-09-06T06:29:56.546Z,15.82
2022-09-06T06:33:02.693Z,15.40
2022-09-06T06:36:21.928Z,15.92
2022-09-06T06:39:28.055Z,16.15
2022-09-06T06:42:35.688Z,16.29
2022-09-06T06:45:42.107Z,16.29
2022-09-06T06:48:52.693Z,15.98
2022-09-06T06:52:00.942Z,16.58
2022-09-06T06:55:07.367Z,15.95
2022-09-06T06:58:14.679Z,16.81
2022-09-06T07:01:22.851Z,16.59
2022-09-06T07:04:29.115Z,17.10
2022-09-06T07:07:36.754Z,16.62
2022-09-06T07:10:45.759Z,17.27
2022-09-06T07:13:53.564Z,17.41
2022-09-06T07:16:59.753Z,17.71
2022-09-06T07:26:41.922Z,17.55
2022-09-06T07:29:49.573Z,17.68
2022-09-06T07:32:55.955Z,18.35
2022-09-06T07:36:03.869Z,18.27
2022-09-06T07:39:09.834Z,18.60
2022-09-06T07:42:16.371Z,18.43
2022-09-06T07:45:23.695Z,18.45
2022-09-06T07:48:31.396Z,18.47
2022-09-06T07:51:37.355Z,19.03
2022-09-06T07:54:43.528Z,18.90
2022-09-06T07:57:49.866Z,18.68
2022-09-06T08:01:15.675Z,18.89
2022-09-06T08:04:22.026Z,19.67
2022-09-06T08:07:43.322Z,20.16
2022-09-06T08:10:52.061Z,19.97
2022-09-06T08:14:00.145Z,19.88
2022-09-06T08:17:07.846Z,19.35
2022-09-06T08:20:14.181Z,19.53
2022-09-06T08:23:20.343Z,20.18
2022-09-06T08:26:27.840Z,20.11
2022-09-06T08:29:34.159Z,20.38
2022-09-06T08:32:42.994Z,20.63
2022-09-06T08:35:57.406Z,20.10
2022-09-06T08:39:06.135Z,20.63
2022-09-06T08:42:13.514Z,20.40
2022-09-06T08:45:21.904Z,20.65
2022-09-06T08:48:33.469Z,20.97
2022-09-06T08:52:02.056Z,20.93
2022-09-06T08:55:26.342Z,21.50
2022-09-06T08:59:00.757Z,21.77
2022-09-06T09:02:16.599Z,21.08
2022-09-06T09:05:30.075Z,21.09
2022-09-06T09:08:46.402Z,21.57
2022-09-06T09:11:52.946Z,21.31
2022-09-06T09:15:06.842Z,21.94
2022-09-06T09:18:13.347Z,21.68
2022-09-06T09:21:30.390Z,22.43
2022-09-06T09:24:38.302Z,22.59
2022-09-06T09:27:46.147Z,22.27
2022-09-06T09:30:54.102Z,22.25
2022-09-06T09:34:04.699Z,22.17
2022-09-06T09:40:53.015Z,22.78
2022-09-06T09:44:04.634Z,22.52
2022-09-06T09:47:28.065Z,22.96
2022-09-06T09:50:36.059Z,22.63
2022-09-06T09:53:51.871Z,23.28
2022-09-06T09:56:58.550Z,22.68
2022-09-06T10:00:13.196Z,23.51
2022-09-06T10:03:31.254Z,23.60
2022-09-06T10:10:08.976Z,23.83
2022-09-06T10:13:21.630Z,23.74
2022-09-06T10:16:44.789Z,24.66
2022-09-06T10:19:51.041Z,24.34
2022-09-06T10:23:03.251Z,24.19
2022-09-06T10:26:16.649Z,24.08
2022-09-06T10:29:36.609Z,23.95
2022-09-06T10:32:43.754Z,24.01
2022-09-06T10:35:50.078Z,25.21
2022-09-06T10:39:03.737Z,25.49
2022-09-06T10:42:21.145Z,24.76
2022-09-06T10:45:44.553Z,24.51
2022-09-06T10:48:50.573Z,25.12
2022-09-06T10:52:01.740Z,25.32
2022-09-06T10:55:12.190Z,24.72
2022-09-06T11:02:14.196Z,25.02
2022-09-06T11:05:41.597Z,25.96
2022-09-06T11:08:57.860Z,26.95
2022-09-06T11:12:12.058Z,26.61
2022-09-06T11:15:22.068Z,26.05
2022-09-06T11:18:33.865Z,26.65
2022-09-06T11:22:09.180Z,25.67
2022-09-06T11:25:46.817Z,26.39
2022-09-06T11:28:56.290Z,27.16
2022-09-06T11:32:25.972Z,25.92
2022-09-06T11:35:34.997Z,26.42
2022-09-06T11:38:42.985Z,26.57
2022-09-06T11:41:49.057Z,26.24
2022-09-06T11:45:21.434Z,26.35
2022-09-06T11:49:02.051Z,25.13
2022-09-06T11:53:00.613Z,25.75
2022-09-06T11:56:26.243Z,25.30
2022-09-06T11:59:40.453Z,25.81
2022-09-06T12:02:46.972Z,25.54
2022-09-06T12:06:17.777Z,26.25
2022-09-06T12:09:34.794Z,26.08
2022-09-06T12:12:43.095Z,25.89
2022-09-06T12:15:55.616Z,26.07
2022-09-06T12:19:03.119Z,26.86
2022-09-06T12:22:42.652Z,26.49
2022-09-06T12:26:00.208Z,26.40
2022-09-06T12:29:11.837Z,26.48
2022-09-06T12:32:23.628Z,25.41
2022-09-06T12:39:00.451Z,25.60
2022-09-06T12:42:13.921Z,25.07
2022-09-06T12:45:25.215Z,24.27
2022-09-06T12:48:36.166Z,24.53
2022-09-06T12:51:42.949Z,24.10
2022-09-06T12:54:51.085Z,23.98
2022-09-06T12:58:00.817Z,23.55
2022-09-06T13:01:14.840Z,23.90
2022-09-06T13:04:28.378Z,23.91
2022-09-06T13:07:36.514Z,23.82
2022-09-06T13:10:45.893Z,23.85
2022-09-06T13:13:55.460Z,23.25
2022-09-06T13:17:01.730Z,23.35
2022-09-06T13:20:13.226Z,23.28
2022-09-06T13:23:22.499Z,22.98
2022-09-06T13:26:37.170Z,23.21
2022-09-06T13:29:56.998Z,23.35
2022-09-06T13:33:04.004Z,23.04
2022-09-06T13:36:22.734Z,23.13
2022-09-06T13:39:34.143Z,22.96
2022-09-06T13:42:40.272Z,22.93
2022-09-06T13:45:47.854Z,23.00
2022-09-06T13:48:55.217Z,23.00
2022-09-06T13:52:03.494Z,23.33
2022-09-06T13:55:10.339Z,22.99
2022-09-06T13:58:16.126Z,23.25
2022-09-06T14:01:23.568Z,23.26
2022-09-06T14:04:30.070Z,23.23
2022-09-06T14:07:36.562Z,23.34
2022-09-06T14:10:43.065Z,23.62
2022-09-06T14:13:49.917Z,24.26
2022-09-06T14:16:57.682Z,24.98
2022-09-06T14:20:05.063Z,23.60
2022-09-06T14:23:11.468Z,23.04
2022-09-06T14:26:18.961Z,23.07
2022-09-06T14:29:25.245Z,22.78
2022-09-06T14:32:33.054Z,22.60
2022-09-06T14:35:40.918Z,22.53
2022-09-06T14:38:48.220Z,22.31
2022-09-06T14:41:54.435Z,22.83
2022-09-06T14:45:01.007Z,22.49
2022-09-06T14:48:08.566Z,22.26
2022-09-06T14:51:19.262Z,22.04
2022-09-06T14:54:29.114Z,21.95
2022-09-06T14:57:36.007Z,22.10
2022-09-06T15:00:44.795Z,21.96
2022-09-06T15:03:54.818Z,21.66
2022-09-06T15:07:01.090Z,21.88
2022-09-06T15:10:08.052Z,21.59
2022-09-06T15:13:14.803Z,21.71
2022-09-06T15:16:21.527Z,21.56
2022-09-06T15:19:31.107Z,21.57
2022-09-06T15:22:37.603Z,21.52
2022-09-06T15:25:48.303Z,21.51
2022-09-06T15:28:54.574Z,21.34
2022-09-06T15:32:01.222Z,21.27
2022-09-06T15:35:10.041Z,21.22
2022-09-06T15:38:16.394Z,21.15
2022-09-06T15:41:25.511Z,21.10
2022-09-06T15:44:31.583Z,21.04
2022-09-06T15:47:37.755Z,21.32
2022-09-06T15:50:51.529Z,21.34
2022-09-06T15:54:00.414Z,21.05
2022-09-06T15:57:07.182Z,20.91
2022-09-06T16:00:14.965Z,20.80
2022-09-06T16:03:21.271Z,21.06
2022-09-06T16:06:29.037Z,20.90
2022-09-06T16:09:35.338Z,20.90
2022-09-06T16:12:41.734Z,20.95
2022-09-06T16:15:57.574Z,20.84
2022-09-06T16:19:04.695Z,20.81
2022-09-06T16:22:13.061Z,20.69
2022-09-06T16:25:19.696Z,20.51
2022-09-06T16:28:30.607Z,20.28
2022-09-06T16:31:40.280Z,20.03
2022-09-06T16:34:47.127Z,20.37
2022-09-06T16:37:54.790Z,20.26
2022-09-06T16:41:02.331Z,19.94
2022-09-06T16:44:09.262Z,19.59
2022-09-06T16:47:16.777Z,19.98
2022-09-06T16:50:23.148Z,19.89
2022-09-06T16:53:30.603Z,19.75
2022-09-06T16:56:36.974Z,19.57
2022-09-06T16:59:43.413Z,19.35
2022-09-06T17:02:49.562Z,19.25
2022-09-06T17:05:55.863Z,19.31
2022-09-06T17:09:03.633Z,19.25
2022-09-06T17:12:09.850Z,18.98
2022-09-06T17:15:16.566Z,18.93
2022-09-06T17:18:22.391Z,18.55
2022-09-06T17:21:30.130Z,18.28
2022-09-06T17:24:38.589Z,18.49
2022-09-06T17:27:44.741Z,18.27
2022-09-06T17:30:51.348Z,18.21
2022-09-06T17:33:59.809Z,18.02
2022-09-06T17:37:06.336Z,18.07
2022-09-06T17:40:14.255Z,17.99
2022-09-06T17:43:21.363Z,18.03
2022-09-06T17:46:29.199Z,17.99
2022-09-06T17:49:35.833Z,17.87
2022-09-06T17:52:41.892Z,17.73
2022-09-06T17:55:52.121Z,17.93
2022-09-06T17:59:01.095Z,17.74
2022-09-06T18:02:07.587Z,17.77
2022-09-06T18:05:13.903Z,17.40
2022-09-06T18:08:21.603Z,17.47
2022-09-06T18:11:32.040Z,17.31
2022-09-06T18:14:39.016Z,17.21
2022-09-06T18:17:45.307Z,17.27
2022-09-06T18:20:51.975Z,17.00
2022-09-06T18:23:58.771Z,16.96
2022-09-06T18:27:06.926Z,16.79
2022-09-06T18:30:14.975Z,16.78
2022-09-06T18:33:24.138Z,16.87
2022-09-06T18:36:32.387Z,17.06
2022-09-06T18:39:39.723Z,16.84
2022-09-06T18:42:47.856Z,16.46
2022-09-06T18:45:54.587Z,16.57
2022-09-06T18:49:01.609Z,16.46
2022-09-06T18:52:08.518Z,16.18
2022-09-06T18:55:14.895Z,16.55
2022-09-06T18:58:23.148Z,16.50
2022-09-06T19:01:31.622Z,16.37
2022-09-06T19:04:40.937Z,16.45
2022-09-06T19:07:47.498Z,16.49
2022-09-06T19:11:03.591Z,16.42
2022-09-06T19:14:11.616Z,16.31
2022-09-06T19:17:18.372Z,16.11
2022-09-06T19:20:24.975Z,15.96
2022-09-06T19:23:33.398Z,15.97
2022-09-06T19:26:42.156Z,16.21
2022-09-06T19:29:49.943Z,16.13
2022-09-06T19:32:56.606Z,15.98
2022-09-06T19:36:11.688Z,15.90
2022-09-06T19:39:19.208Z,16.06
2022-09-06T19:42:25.574Z,15.81
2022-09-06T19:45:38.179Z,15.41
2022-09-06T19:48:46.821Z,15.58
2022-09-06T19:51:53.257Z,15.59
2022-09-06T19:54:59.792Z,15.32
2022-09-06T19:58:09.070Z,14.81
2022-09-06T20:01:18.159Z,14.78
2022-09-06T20:04:25.116Z,15.17
2022-09-06T20:07:31.244Z,15.28
2022-09-06T20:10:37.498Z,15.07
2022-09-06T20:13:44.041Z,14.92
2022-09-06T20:16:52.441Z,15.41
2022-09-06T20:19:58.594Z,15.72
2022-09-06T20:23:05.021Z,15.58
2022-09-06T20:26:13.546Z,15.18
2022-09-06T20:29:20.283Z,15.15
2022-09-06T20:32:28.271Z,15.30
2022-09-06T20:35:34.708Z,15.27
2022-09-06T20:38:42.341Z,15.03
2022-09-06T20:41:48.436Z,14.80
2022-09-06T20:44:54.769Z,14.28
2022-09-06T20:48:02.990Z,14.75
2022-09-06T20:51:11.406Z,14.32
2022-09-06T20:54:18.095Z,14.53
2022-09-06T20:57:24.722Z,14.64
2022-09-06T21:00:31.131Z,14.47
2022-09-06T21:03:40.883Z,14.49
2022-09-06T21:06:47.323Z,14.35
2022-09-06T21:09:53.528Z,13.71
2022-09-06T21:12:59.710Z,13.67
2022-09-06T21:16:06.875Z,13.94
2022-09-06T21:19:14.855Z,14.43
2022-09-06T21:22:21.367Z,14.43
2022-09-06T21:25:28.090Z,14.52
2022-09-06T21:28:36.796Z,14.05
2022-09-06T21:31:43.143Z,13.92
2022-09-06T21:34:50.829Z,13.79
2022-09-06T21:37:57.120Z,13.53
2022-09-06T21:41:03.476Z,14.03
2022-09-06T21:44:10.580Z,14.21
2022-09-06T21:47:16.635Z,13.86
2022-09-06T21:50:24.011Z,13.68
2022-09-06T21:53:30.088Z,13.39
2022-09-06T21:56:38.390Z,13.16
2022-09-06T21:59:44.847Z,13.03
2022-09-06T22:02:51.611Z,13.67
2022-09-06T22:05:59.894Z,13.62
2022-09-06T22:09:11.167Z,13.68
2022-09-06T22:12:17.553Z,13.49
2022-09-06T22:15:23.859Z,13.63
2022-09-06T22:18:30.174Z,13.48
2022-09-06T22:21:38.900Z,12.49
2022-09-06T22:24:45.000Z,12.52
2022-09-06T22:27:51.063Z,12.40
2022-09-06T22:30:57.558Z,12.45
2022-09-06T22:34:04.220Z,12.76
2022-09-06T22:37:12.711Z,13.17
2022-09-06T22:40:19.166Z,13.15
2022-09-06T22:43:26.127Z,13.00
2022-09-06T22:46:33.063Z,12.76
2022-09-06T22:49:39.583Z,12.76
2022-09-06T22:52:47.518Z,13.16
2022-09-06T22:55:53.903Z,13.14
2022-09-06T22:59:00.468Z,13.33
2022-09-06T23:02:07.312Z,12.85
2022-09-06T23:05:13.817Z,12.62
2022-09-06T23:08:21.776Z,12.97
2022-09-06T23:11:28.894Z,13.13
2022-09-06T23:14:35.102Z,13.13
2022-09-06T23:17:41.344Z,12.92
2022-09-06T23:20:47.558Z,12.87
2022-09-06T23:23:57.366Z,12.55
2022-09-06T23:27:04.899Z,12.53
2022-09-06T23:30:12.375Z,12.62
2022-09-06T23:33:18.678Z,12.64
2022-09-06T23:36:25.565Z,12.52
2022-09-06T23:39:33.302Z,12.45
2022-09-06T23:42:39.380Z,12.65
2022-09-06T23:45:45.608Z,12.37
2022-09-06T23:48:51.716Z,12.66
2022-09-06T23:51:57.807Z,12.77
2022-09-06T23:55:06.376Z,12.29
2022-09-06T23:58:12.961Z,12.08
